createdAt,value
2023-02-16T00:00:54.615Z,63.08
2023-02-16T00:03:20.861Z,63.06
2023-02-16T00:05:47.036Z,63.10
2023-02-16T00:08:13.140Z,63.07
2023-02-16T00:10:39.759Z,63.01
2023-02-16T00:13:05.863Z,63.15
2023-02-16T00:15:31.964Z,63.07
2023-02-16T00:17:58.108Z,62.92
2023-02-16T00:20:24.204Z,63.16
2023-02-16T00:22:50.401Z,62.91
2023-02-16T00:25:16.520Z,63.08
2023-02-16T00:27:42.623Z,62.91
2023-02-16T00:30:08.786Z,63.34
2023-02-16T00:32:34.948Z,62.94
2023-02-16T00:35:01.043Z,63.04
2023-02-16T00:37:27.148Z,62.80
2023-02-16T00:39:53.270Z,63.08
2023-02-16T00:42:19.373Z,62.90
2023-02-16T00:44:45.478Z,62.94
2023-02-16T00:47:11.609Z,62.92
2023-02-16T00:49:37.825Z,62.90
2023-02-16T00:52:03.937Z,63.09
2023-02-16T00:54:31.970Z,63.06
2023-02-16T00:56:58.210Z,63.08
2023-02-16T00:59:24.385Z,63.15
2023-02-16T01:01:50.612Z,63.11
2023-02-16T01:04:16.784Z,62.88
2023-02-16T01:06:42.905Z,63.16
2023-02-16T01:09:09.032Z,63.09
2023-02-16T01:11:37.876Z,63.09
2023-02-16T01:14:04.033Z,63.23
2023-02-16T01:16:30.210Z,63.12
2023-02-16T01:18:56.371Z,63.13
2023-02-16T01:21:22.617Z,63.10
2023-02-16T01:23:48.756Z,63.25
2023-02-16T01:26:14.864Z,63.06
2023-02-16T01:28:40.969Z,62.85
2023-02-16T01:31:07.492Z,62.83
2023-02-16T01:33:33.844Z,62.96
2023-02-16T01:35:59.942Z,63.11
2023-02-16T01:38:26.062Z,63.15
2023-02-16T01:40:52.192Z,63.21
2023-02-16T01:43:18.291Z,63.09
2023-02-16T01:45:44.416Z,63.20
2023-02-16T01:48:10.515Z,63.08
2023-02-16T01:50:36.666Z,63.00
2023-02-16T01:53:02.782Z,62.98
2023-02-16T01:55:28.892Z,62.93
2023-02-16T01:57:54.986Z,62.90
2023-02-16T02:00:21.105Z,62.86
2023-02-16T02:02:47.242Z,63.14
2023-02-16T02:05:13.360Z,63.19
2023-02-16T02:07:39.508Z,62.80
2023-02-16T02:10:05.630Z,63.02
2023-02-16T02:12:31.766Z,63.14
2023-02-16T02:14:57.985Z,62.95
2023-02-16T02:17:24.091Z,62.95
2023-02-16T02:19:50.188Z,62.87
2023-02-16T02:22:16.319Z,62.97
2023-02-16T02:24:42.430Z,63.11
2023-02-16T02:27:08.526Z,62.94
2023-02-16T02:29:34.652Z,63.20
2023-02-16T02:32:00.951Z,63.04
2023-02-16T02:34:27.104Z,63.16
2023-02-16T02:36:53.231Z,63.11
2023-02-16T02:39:19.326Z,62.95
2023-02-16T02:41:45.421Z,62.98
2023-02-16T02:44:11.547Z,63.08
2023-02-16T02:46:37.636Z,63.14
2023-02-16T02:49:03.756Z,62.98
2023-02-16T02:51:29.904Z,63.16
2023-02-16T02:53:56.006Z,63.19
2023-02-16T02:56:22.130Z,62.95
2023-02-16T02:58:48.255Z,62.82
2023-02-16T03:01:14.430Z,63.13
2023-02-16T03:03:40.600Z,63.12
2023-02-16T03:06:06.738Z,63.17
2023-02-16T03:08:32.855Z,63.03
2023-02-16T03:10:58.972Z,63.04
2023-02-16T03:13:25.084Z,63.17
2023-02-16T03:15:51.182Z,63.17
2023-02-16T03:18:17.280Z,63.10
2023-02-16T03:20:43.492Z,62.90
2023-02-16T03:23:09.593Z,62.86
2023-02-16T03:25:35.690Z,63.18
2023-02-16T03:28:01.873Z,63.12
2023-02-16T03:30:28.122Z,63.11
2023-02-16T03:32:54.319Z,63.17
2023-02-16T03:35:20.426Z,62.95
2023-02-16T03:37:46.584Z,63.19
2023-02-16T03:40:12.719Z,63.16
2023-02-16T03:42:38.859Z,62.97
2023-02-16T03:45:04.968Z,63.04
2023-02-16T03:47:31.066Z,63.02
2023-02-16T03:49:57.250Z,63.13
2023-02-16T03:52:23.340Z,62.88
2023-02-16T03:54:49.434Z,63.21
2023-02-16T03:57:15.558Z,63.16
2023-02-16T03:59:41.677Z,62.86
2023-02-16T04:02:07.859Z,62.82
2023-02-16T04:04:34.112Z,62.98
2023-02-16T04:07:00.297Z,63.06
2023-02-16T04:09:26.405Z,62.84
2023-02-16T04:11:52.517Z,63.16
2023-02-16T04:14:18.627Z,62.80
2023-02-16T04:16:44.760Z,63.00
2023-02-16T04:19:10.952Z,62.84
2023-02-16T04:21:37.105Z,63.15
2023-02-16T04:24:03.232Z,63.11
2023-02-16T04:26:29.431Z,63.06
2023-02-16T04:28:58.538Z,63.08
2023-02-16T04:31:24.770Z,63.01
2023-02-16T04:33:50.994Z,62.99
2023-02-16T04:36:17.136Z,62.76
2023-02-16T04:38:43.270Z,62.69
2023-02-16T04:41:09.398Z,62.90
2023-02-16T04:43:35.556Z,62.76
2023-02-16T04:46:01.699Z,62.79
2023-02-16T04:48:27.904Z,62.94
2023-02-16T04:50:54.031Z,63.00
2023-02-16T04:53:20.146Z,63.10
2023-02-16T04:55:46.256Z,62.92
2023-02-16T04:58:12.362Z,63.07
2023-02-16T05:00:38.461Z,62.93
2023-02-16T05:03:04.648Z,62.86
2023-02-16T05:05:30.769Z,62.91
2023-02-16T05:07:56.873Z,63.10
2023-02-16T05:10:22.994Z,62.91
2023-02-16T05:12:49.091Z,62.82
2023-02-16T05:15:15.197Z,62.98
2023-02-16T05:17:41.326Z,63.03
2023-02-16T05:20:07.427Z,63.13
2023-02-16T05:22:33.571Z,62.97
2023-02-16T05:24:59.899Z,63.06
2023-02-16T05:27:26.070Z,62.95
2023-02-16T05:29:52.259Z,62.86
2023-02-16T05:32:18.519Z,63.06
2023-02-16T05:34:44.695Z,63.18
2023-02-16T05:37:10.812Z,62.73
2023-02-16T05:39:36.947Z,62.88
2023-02-16T05:42:03.067Z,62.81
2023-02-16T05:44:29.184Z,63.05
2023-02-16T05:46:55.295Z,62.93
2023-02-16T05:49:21.476Z,63.16
2023-02-16T05:51:47.568Z,62.96
2023-02-16T05:54:13.708Z,62.78
2023-02-16T05:56:39.820Z,63.17
2023-02-16T05:59:05.922Z,62.82
2023-02-16T06:01:32.045Z,63.10
2023-02-16T06:03:58.178Z,63.22
2023-02-16T06:06:24.301Z,62.97
2023-02-16T06:08:50.518Z,62.99
2023-02-16T06:11:16.626Z,62.88
2023-02-16T06:13:42.737Z,63.10
2023-02-16T06:16:08.894Z,62.89
2023-02-16T06:18:35.031Z,63.12
2023-02-16T06:21:01.159Z,63.03
2023-02-16T06:23:27.296Z,62.85
2023-02-16T06:25:53.390Z,63.07
2023-02-16T06:28:19.503Z,63.00
2023-02-16T06:30:45.679Z,63.17
2023-02-16T06:33:11.801Z,63.18
2023-02-16T06:35:37.901Z,63.23
2023-02-16T06:38:04.042Z,63.18
2023-02-16T06:40:30.154Z,63.00
2023-02-16T06:42:56.245Z,62.92
2023-02-16T06:45:22.366Z,63.10
2023-02-16T06:47:48.479Z,63.19
2023-02-16T06:50:14.682Z,63.25
2023-02-16T06:52:40.861Z,63.00
2023-02-16T06:55:07.011Z,63.12
2023-02-16T06:57:33.118Z,63.08
2023-02-16T06:59:59.247Z,63.02
2023-02-16T07:02:25.390Z,63.03
2023-02-16T07:04:51.511Z,63.00
2023-02-16T07:07:17.674Z,62.89
2023-02-16T07:09:43.793Z,63.07
2023-02-16T07:12:09.912Z,63.26
2023-02-16T07:14:36.049Z,63.19
2023-02-16T07:17:02.151Z,63.02
2023-02-16T07:19:28.264Z,63.21
2023-02-16T07:21:54.383Z,63.19
2023-02-16T07:24:20.506Z,63.17
2023-02-16T07:26:46.632Z,63.07
2023-02-16T07:29:13.291Z,62.86
2023-02-16T07:31:39.577Z,62.99
2023-02-16T07:34:05.869Z,62.80
2023-02-16T07:36:32.042Z,62.94
2023-02-16T07:38:58.358Z,63.19
2023-02-16T07:41:24.496Z,63.11
2023-02-16T07:43:50.652Z,63.13
2023-02-16T07:46:16.780Z,63.22
2023-02-16T07:48:42.886Z,62.98
2023-02-16T07:51:09.031Z,63.00
2023-02-16T07:53:35.153Z,62.82
2023-02-16T07:56:01.274Z,63.11
2023-02-16T07:58:27.661Z,63.24
2023-02-16T08:00:53.887Z,63.06
2023-02-16T08:03:20.170Z,62.88
2023-02-16T08:05:46.436Z,63.08
2023-02-16T08:08:12.617Z,62.90
2023-02-16T08:10:38.740Z,63.47
2023-02-16T08:13:04.861Z,63.08
2023-02-16T08:15:31.032Z,62.99
2023-02-16T08:17:57.162Z,62.99
2023-02-16T08:20:27.778Z,62.89
2023-02-16T08:23:01.538Z,62.89
2023-02-16T08:25:28.024Z,62.98
2023-02-16T08:27:54.117Z,62.94
2023-02-16T08:30:20.323Z,62.79
2023-02-16T08:32:47.347Z,62.84
2023-02-16T08:35:13.525Z,63.08
2023-02-16T08:37:39.648Z,62.72
2023-02-16T08:40:06.230Z,62.93
2023-02-16T08:42:32.404Z,62.94
2023-02-16T08:44:58.545Z,62.99
2023-02-16T08:47:24.755Z,62.93
2023-02-16T08:49:50.860Z,63.02
2023-02-16T08:52:16.992Z,63.03
2023-02-16T08:54:43.501Z,63.03
2023-02-16T08:57:09.753Z,62.80
2023-02-16T08:59:35.961Z,62.87
2023-02-16T09:02:02.118Z,62.89
2023-02-16T09:04:28.262Z,62.96
2023-02-16T09:06:54.378Z,62.79
2023-02-16T09:09:20.704Z,62.74
2023-02-16T09:11:46.859Z,62.86
2023-02-16T09:14:13.008Z,62.82
2023-02-16T09:16:39.187Z,62.88
2023-02-16T09:19:05.356Z,62.81
2023-02-16T09:21:31.454Z,63.06
2023-02-16T09:23:57.575Z,63.21
2023-02-16T09:26:23.698Z,62.87
2023-02-16T09:28:49.813Z,62.84
2023-02-16T09:31:16.095Z,62.85
2023-02-16T09:33:42.251Z,62.86
2023-02-16T09:36:08.404Z,63.00
2023-02-16T09:38:34.554Z,62.97
2023-02-16T09:41:00.722Z,62.96
2023-02-16T09:43:26.865Z,62.66
2023-02-16T09:45:53.065Z,62.80
2023-02-16T09:48:19.207Z,62.96
2023-02-16T09:50:53.781Z,62.96
2023-02-16T09:53:20.707Z,62.82
2023-02-16T09:55:46.974Z,62.88
2023-02-16T09:58:13.123Z,62.66
2023-02-16T10:00:39.279Z,63.01
2023-02-16T10:03:05.438Z,62.50
2023-02-16T10:05:31.727Z,62.89
2023-02-16T10:07:57.874Z,62.51
2023-02-16T10:10:23.975Z,62.88
2023-02-16T10:12:50.092Z,62.86
2023-02-16T10:15:16.229Z,62.89
2023-02-16T10:17:42.339Z,62.78
2023-02-16T10:20:08.430Z,62.65
2023-02-16T10:22:34.571Z,62.78
2023-02-16T10:25:00.719Z,62.94
2023-02-16T10:27:27.038Z,62.69
2023-02-16T10:29:53.608Z,62.52
2023-02-16T10:32:19.742Z,62.60
2023-02-16T10:34:45.841Z,62.51
2023-02-16T10:37:11.971Z,62.72
2023-02-16T10:39:38.089Z,62.46
2023-02-16T10:42:04.276Z,62.55
2023-02-16T10:44:30.446Z,62.45
2023-02-16T10:46:56.593Z,62.34
2023-02-16T10:49:22.739Z,62.76
2023-02-16T10:51:48.872Z,62.45
2023-02-16T10:54:14.985Z,62.61
2023-02-16T10:56:41.088Z,62.50
2023-02-16T10:59:07.425Z,62.57
2023-02-16T11:01:33.617Z,62.41
2023-02-16T11:03:59.768Z,62.67
2023-02-16T11:06:25.898Z,62.76
2023-02-16T11:08:52.013Z,62.76
2023-02-16T11:11:18.126Z,62.58
2023-02-16T11:13:44.251Z,62.55
2023-02-16T11:16:10.483Z,62.32
2023-02-16T11:18:36.638Z,62.46
2023-02-16T11:21:03.239Z,62.57
2023-02-16T11:23:29.605Z,62.21
2023-02-16T11:25:55.944Z,62.41
2023-02-16T11:28:22.135Z,62.61
2023-02-16T11:30:48.275Z,62.71
2023-02-16T11:33:14.439Z,62.39
2023-02-16T11:35:40.570Z,62.69
2023-02-16T11:38:06.675Z,62.41
2023-02-16T11:40:32.806Z,62.28
2023-02-16T11:42:58.937Z,62.58
2023-02-16T11:45:25.072Z,62.67
2023-02-16T11:47:51.193Z,62.27
2023-02-16T11:50:17.655Z,62.33
2023-02-16T11:52:43.793Z,62.40
2023-02-16T11:55:09.906Z,62.50
2023-02-16T11:57:36.049Z,62.56
2023-02-16T12:00:02.167Z,62.46
2023-02-16T12:02:28.286Z,62.37
2023-02-16T12:04:54.444Z,62.30
2023-02-16T12:07:20.648Z,62.68
2023-02-16T12:09:46.762Z,62.41
2023-02-16T12:12:12.900Z,62.30
2023-02-16T12:14:39.023Z,62.51
2023-02-16T12:17:05.141Z,62.30
2023-02-16T12:19:31.292Z,62.39
2023-02-16T12:21:57.419Z,62.26
2023-02-16T12:24:23.538Z,62.30
2023-02-16T12:26:49.688Z,62.23
2023-02-16T12:29:15.780Z,62.44
2023-02-16T12:31:41.969Z,62.40
2023-02-16T12:34:08.103Z,62.45
2023-02-16T12:36:34.223Z,62.33
2023-02-16T12:39:00.334Z,62.21
2023-02-16T12:41:26.456Z,62.23
2023-02-16T12:43:52.592Z,62.23
2023-02-16T12:46:18.719Z,62.45
2023-02-16T12:48:44.847Z,62.17
2023-02-16T12:51:10.943Z,62.43
2023-02-16T12:53:37.077Z,62.10
2023-02-16T12:56:03.646Z,62.39
2023-02-16T12:58:29.970Z,62.16
2023-02-16T13:00:56.123Z,62.28
2023-02-16T13:03:22.422Z,62.35
2023-02-16T13:05:48.593Z,62.08
2023-02-16T13:08:14.711Z,61.97
2023-02-16T13:10:40.837Z,62.32
2023-02-16T13:13:06.983Z,62.28
2023-02-16T13:15:33.106Z,62.33
2023-02-16T13:17:59.261Z,62.07
2023-02-16T13:20:25.392Z,62.07
2023-02-16T13:22:51.499Z,62.21
2023-02-16T13:25:18.192Z,62.35
2023-02-16T13:27:45.269Z,62.08
2023-02-16T13:30:11.422Z,62.11
2023-02-16T13:32:37.548Z,62.15
2023-02-16T13:35:03.668Z,62.26
2023-02-16T13:37:29.782Z,62.14
2023-02-16T13:39:55.926Z,62.24
2023-02-16T13:42:22.046Z,62.15
2023-02-16T13:44:48.198Z,62.19
2023-02-16T13:47:14.348Z,62.01
2023-02-16T13:49:40.468Z,62.15
2023-02-16T13:52:06.593Z,62.19
2023-02-16T13:54:33.292Z,62.24
2023-02-16T13:56:59.404Z,62.16
2023-02-16T13:59:25.513Z,62.24
2023-02-16T14:01:51.693Z,62.23
2023-02-16T14:04:17.814Z,62.25
2023-02-16T14:06:43.963Z,62.29
2023-02-16T14:09:10.088Z,62.20
2023-02-16T14:11:36.194Z,62.01
2023-02-16T14:14:02.298Z,62.01
2023-02-16T14:16:28.416Z,62.21
2023-02-16T14:18:54.552Z,62.05
2023-02-16T14:21:20.667Z,62.20
2023-02-16T14:23:46.793Z,62.35
2023-02-16T14:26:12.905Z,62.32
2023-02-16T14:28:39.074Z,61.97
2023-02-16T14:31:05.673Z,62.26
2023-02-16T14:33:32.077Z,62.20
2023-02-16T14:35:58.194Z,62.29
2023-02-16T14:38:24.338Z,62.24
2023-02-16T14:40:50.457Z,62.20
2023-02-16T14:43:16.569Z,62.12
2023-02-16T14:45:42.728Z,62.31
2023-02-16T14:48:08.830Z,62.29
2023-02-16T14:50:34.960Z,62.20
2023-02-16T14:53:01.106Z,62.14
2023-02-16T14:55:27.206Z,62.16
2023-02-16T14:57:53.347Z,62.10
2023-02-16T15:00:19.829Z,62.30
2023-02-16T15:02:45.985Z,62.34
2023-02-16T15:05:12.087Z,62.34
2023-02-16T15:07:38.249Z,62.21
2023-02-16T15:10:04.434Z,62.07
2023-02-16T15:12:30.564Z,62.40
2023-02-16T15:14:56.725Z,62.17
2023-02-16T15:17:22.831Z,62.00
2023-02-16T15:19:48.950Z,62.34
2023-02-16T15:22:15.141Z,62.28
2023-02-16T15:24:41.277Z,62.20
2023-02-16T15:27:07.387Z,62.19
2023-02-16T15:29:33.545Z,62.34
2023-02-16T15:31:59.800Z,62.31
2023-02-16T15:34:25.972Z,62.26
2023-02-16T15:36:52.219Z,62.21
2023-02-16T15:39:21.242Z,62.11
2023-02-16T15:41:47.405Z,61.93
2023-02-16T15:44:13.563Z,62.10
2023-02-16T15:46:39.757Z,62.09
2023-02-16T15:49:05.937Z,62.15
2023-02-16T15:51:32.071Z,62.34
2023-02-16T15:53:58.183Z,62.46
2023-02-16T15:56:24.297Z,62.32
2023-02-16T15:58:50.435Z,61.95
2023-02-16T16:01:19.106Z,62.19
2023-02-16T16:03:50.211Z,62.36
2023-02-16T16:06:16.532Z,62.32
2023-02-16T16:08:42.635Z,62.34
2023-02-16T16:11:08.735Z,62.14
2023-02-16T16:13:34.861Z,62.14
2023-02-16T16:16:01.034Z,61.97
2023-02-16T16:18:27.186Z,62.41
2023-02-16T16:20:53.286Z,62.43
2023-02-16T16:23:19.396Z,62.22
2023-02-16T16:25:45.541Z,62.21
2023-02-16T16:28:11.707Z,62.41
2023-02-16T16:30:37.820Z,62.11
2023-02-16T16:33:03.950Z,62.10
2023-02-16T16:35:30.081Z,62.31
2023-02-16T16:37:56.193Z,62.30
2023-02-16T16:40:22.317Z,62.33
2023-02-16T16:42:48.544Z,62.42
2023-02-16T16:45:14.668Z,62.18
2023-02-16T16:47:40.844Z,62.25
2023-02-16T16:50:06.988Z,62.11
2023-02-16T16:52:33.129Z,62.36
2023-02-16T16:54:59.244Z,62.34
2023-02-16T16:57:25.413Z,62.42
2023-02-16T16:59:52.787Z,62.40
2023-02-16T17:02:18.896Z,62.12
2023-02-16T17:04:45.428Z,62.41
2023-02-16T17:07:11.566Z,62.32
2023-02-16T17:09:37.710Z,62.10
2023-02-16T17:12:03.844Z,62.03
2023-02-16T17:14:29.967Z,62.33
2023-02-16T17:16:56.067Z,62.23
2023-02-16T17:19:22.187Z,62.35
2023-02-16T17:21:48.330Z,62.37
2023-02-16T17:24:14.457Z,62.13
2023-02-16T17:26:40.615Z,62.26
2023-02-16T17:29:06.723Z,62.50
2023-02-16T17:31:32.875Z,62.10
2023-02-16T17:33:59.076Z,62.40
2023-02-16T17:36:25.176Z,62.13
2023-02-16T17:38:51.286Z,62.21
2023-02-16T17:41:17.436Z,62.13
2023-02-16T17:43:43.660Z,62.31
2023-02-16T17:46:09.866Z,62.10
2023-02-16T17:48:36.035Z,62.30
2023-02-16T17:51:02.138Z,62.29
2023-02-16T17:53:28.237Z,62.24
2023-02-16T17:55:54.377Z,62.40
2023-02-16T17:58:20.478Z,62.16
2023-02-16T18:00:46.579Z,62.02
2023-02-16T18:03:12.707Z,62.18
2023-02-16T18:05:38.806Z,62.08
2023-02-16T18:08:04.910Z,62.15
2023-02-16T18:10:31.072Z,62.16
2023-02-16T18:12:57.188Z,62.16
2023-02-16T18:15:23.308Z,61.96
2023-02-16T18:17:49.488Z,62.32
2023-02-16T18:20:15.628Z,62.16
2023-02-16T18:22:41.725Z,62.14
2023-02-16T18:25:07.946Z,62.13
2023-02-16T18:27:34.043Z,62.29
2023-02-16T18:30:00.229Z,62.21
2023-02-16T18:32:26.420Z,62.33
2023-02-16T18:34:52.527Z,61.91
2023-02-16T18:37:18.614Z,62.27
2023-02-16T18:39:44.735Z,61.98
2023-02-16T18:42:10.855Z,62.27
2023-02-16T18:44:36.985Z,62.14
2023-02-16T18:47:03.133Z,62.26
2023-02-16T18:49:29.264Z,62.15
2023-02-16T18:51:55.380Z,62.27
2023-02-16T18:54:21.551Z,61.89
2023-02-16T18:56:47.655Z,62.10
2023-02-16T18:59:13.752Z,62.11
2023-02-16T19:01:39.954Z,61.98
2023-02-16T19:04:06.121Z,62.08
2023-02-16T19:06:32.278Z,62.02
2023-02-16T19:08:58.412Z,62.07
2023-02-16T19:11:24.514Z,62.07
2023-02-16T19:13:50.626Z,62.19
2023-02-16T19:16:16.785Z,62.20
2023-02-16T19:18:42.930Z,62.15
2023-02-16T19:21:09.085Z,62.08
2023-02-16T19:23:35.236Z,62.18
2023-02-16T19:26:01.346Z,61.88
2023-02-16T19:28:27.456Z,61.96
2023-02-16T19:30:53.724Z,62.17
2023-02-16T19:33:19.866Z,61.84
2023-02-16T19:35:45.952Z,61.95
2023-02-16T19:38:12.080Z,62.03
2023-02-16T19:40:38.176Z,62.16
2023-02-16T19:43:04.279Z,61.85
2023-02-16T19:45:30.948Z,61.99
2023-02-16T19:47:57.058Z,62.18
2023-02-16T19:50:23.155Z,62.08
2023-02-16T19:52:49.275Z,62.03
2023-02-16T19:55:15.384Z,61.87
2023-02-16T19:57:41.489Z,62.21
2023-02-16T20:00:07.643Z,62.11
2023-02-16T20:02:33.772Z,62.09
2023-02-16T20:04:59.904Z,62.01
2023-02-16T20:07:26.057Z,61.97
2023-02-16T20:09:52.187Z,62.01
2023-02-16T20:12:18.301Z,61.83
2023-02-16T20:14:44.528Z,61.99
2023-02-16T20:17:10.656Z,62.11
2023-02-16T20:19:36.854Z,61.87
2023-02-16T20:22:02.982Z,61.78
2023-02-16T20:24:29.076Z,62.20
2023-02-16T20:26:55.351Z,62.01
2023-02-16T20:29:21.518Z,61.80
2023-02-16T20:31:47.735Z,61.88
2023-02-16T20:34:13.939Z,62.07
2023-02-16T20:36:40.101Z,62.06
2023-02-16T20:39:06.208Z,62.04
2023-02-16T20:41:32.316Z,62.04
2023-02-16T20:43:58.455Z,61.89
2023-02-16T20:46:24.704Z,62.02
2023-02-16T20:48:51.092Z,62.13
2023-02-16T20:51:17.256Z,61.91
2023-02-16T20:53:43.374Z,62.13
2023-02-16T20:56:09.500Z,62.09
2023-02-16T20:58:35.641Z,62.04
2023-02-16T21:01:01.801Z,62.03
2023-02-16T21:03:27.991Z,62.06
2023-02-16T21:05:54.153Z,61.88
2023-02-16T21:08:20.255Z,61.97
2023-02-16T21:10:46.365Z,61.91
2023-02-16T21:13:12.496Z,61.89
2023-02-16T21:15:38.600Z,62.14
2023-02-16T21:18:04.761Z,61.78
2023-02-16T21:20:30.975Z,62.03
2023-02-16T21:22:57.117Z,61.96
2023-02-16T21:25:23.230Z,62.00
2023-02-16T21:27:49.389Z,62.17
2023-02-16T21:30:15.541Z,61.86
2023-02-16T21:32:41.681Z,61.83
2023-02-16T21:35:07.826Z,62.00
2023-02-16T21:37:33.931Z,61.69
2023-02-16T21:40:00.161Z,61.89
2023-02-16T21:42:26.298Z,61.94
2023-02-16T21:44:52.421Z,62.04
2023-02-16T21:47:18.706Z,62.17
2023-02-16T21:49:44.925Z,61.84
2023-02-16T21:52:11.030Z,61.98
2023-02-16T21:54:37.168Z,61.82
2023-02-16T21:57:03.308Z,61.92
2023-02-16T21:59:29.550Z,61.68
2023-02-16T22:01:55.646Z,61.98
2023-02-16T22:04:21.973Z,61.77
2023-02-16T22:06:48.203Z,61.95
2023-02-16T22:09:14.484Z,61.89
2023-02-16T22:11:40.605Z,61.95
2023-02-16T22:14:06.712Z,61.78
2023-02-16T22:16:32.853Z,61.97
2023-02-16T22:18:58.997Z,62.01
2023-02-16T22:21:25.117Z,61.94
2023-02-16T22:23:51.227Z,61.99
2023-02-16T22:26:17.431Z,61.87
2023-02-16T22:28:43.523Z,61.82
2023-02-16T22:31:09.701Z,61.79
2023-02-16T22:33:35.912Z,61.98
2023-02-16T22:36:02.001Z,62.05
2023-02-16T22:38:28.104Z,62.00
2023-02-16T22:40:54.223Z,61.96
2023-02-16T22:43:20.347Z,62.13
2023-02-16T22:45:46.512Z,61.85
2023-02-16T22:48:12.643Z,61.97
2023-02-16T22:50:38.758Z,61.86
2023-02-16T22:53:04.882Z,61.82
2023-02-16T22:55:31.019Z,62.07
2023-02-16T22:57:57.147Z,62.22
2023-02-16T23:00:23.246Z,62.07
2023-02-16T23:02:49.370Z,61.72
2023-02-16T23:05:15.488Z,61.93
2023-02-16T23:07:41.600Z,61.98
2023-02-16T23:10:07.733Z,62.07
2023-02-16T23:12:33.852Z,61.75
2023-02-16T23:14:59.978Z,62.13
2023-02-16T23:17:26.106Z,62.07
2023-02-16T23:19:52.243Z,62.08
2023-02-16T23:22:18.352Z,61.94
2023-02-16T23:24:44.552Z,61.96
2023-02-16T23:27:10.665Z,61.96
2023-02-16T23:29:36.801Z,61.97
2023-02-16T23:32:02.912Z,61.81
2023-02-16T23:34:29.021Z,61.90
2023-02-16T23:36:55.132Z,62.06
2023-02-16T23:39:21.256Z,61.98
2023-02-16T23:41:47.356Z,61.78
2023-02-16T23:44:13.464Z,61.86
2023-02-16T23:46:39.605Z,61.99
2023-02-16T23:49:05.728Z,61.96
2023-02-16T23:51:31.848Z,62.01
2023-02-16T23:53:57.970Z,61.86
2023-02-16T23:56:24.088Z,62.05
2023-02-16T23:58:50.196Z,61.87
